Time;durP1;ratioP1;P1;durP2;ratioP2;P2;SDS_P1;SDS_P2;PMS_P1;PMS_P2;Temp;Humidity;BMP_temperature;BMP_pressure;BME280_temperature;BME280_humidity;BME280_pressure;Samples;Min_cycle;Max_cycle;Signal;HPM_P1;HPM_P2
2022/08/19 00:00:16;;;;;;;23.23;13.00;;;;;;;;;;5029039;28;20406;-55
2022/08/19 00:02:42;;;;;;;19.83;12.32;;;;;;;;;;5030308;28;20825;-55
2022/08/19 00:05:09;;;;;;;21.73;11.82;;;;;;;;;;5028421;28;20785;-55
2022/08/19 00:07:35;;;;;;;20.75;12.30;;;;;;;;;;5028586;28;20916;-55
2022/08/19 00:10:01;;;;;;;22.13;12.23;;;;;;;;;;5027794;28;20442;-55
2022/08/19 00:12:27;;;;;;;18.23;11.35;;;;;;;;;;5029922;28;20468;-55
2022/08/19 00:14:54;;;;;;;20.92;11.25;;;;;;;;;;5029299;28;20402;-55
2022/08/19 00:17:20;;;;;;;20.10;11.43;;;;;;;;;;5027879;28;20406;-55
2022/08/19 00:19:46;;;;;;;25.47;12.37;;;;;;;;;;5027271;28;20403;-55
2022/08/19 00:22:12;;;;;;;20.23;11.32;;;;;;;;;;5028948;28;20363;-55
2022/08/19 00:24:38;;;;;;;18.15;10.88;;;;;;;;;;5029155;28;20433;-55
2022/08/19 00:27:05;;;;;;;22.50;11.60;;;;;;;;;;5028403;28;20460;-55
2022/08/19 00:29:31;;;;;;;22.10;11.65;;;;;;;;;;5029180;28;20840;-55
2022/08/19 00:31:59;;;;;;;21.85;11.60;;;;;;;;;;5029510;28;20402;-55
2022/08/19 00:34:28;;;;;;;20.35;11.18;;;;;;;;;;5027686;28;20399;-55
2022/08/19 00:36:55;;;;;;;25.52;12.60;;;;;;;;;;5029334;28;20382;-55
2022/08/19 00:39:21;;;;;;;19.40;11.43;;;;;;;;;;5029112;28;20377;-55
2022/08/19 00:41:49;;;;;;;19.70;11.50;;;;;;;;;;5029131;28;20876;-55
2022/08/19 00:44:15;;;;;;;20.48;11.60;;;;;;;;;;5028525;28;20853;-55
2022/08/19 00:46:42;;;;;;;19.87;11.70;;;;;;;;;;5029520;28;20426;-55
2022/08/19 00:49:16;;;;;;;21.80;11.63;;;;;;;;;;5028477;28;20450;-55
2022/08/19 00:51:45;;;;;;;19.90;11.50;;;;;;;;;;5029234;28;20390;-55
2022/08/19 00:54:11;;;;;;;19.42;11.20;;;;;;;;;;5028844;28;20375;-55
2022/08/19 00:56:37;;;;;;;21.15;12.10;;;;;;;;;;5029219;28;20395;-55
2022/08/19 00:59:08;;;;;;;19.97;11.57;;;;;;;;;;5028823;28;20878;-55
2022/08/19 01:01:34;;;;;;;21.77;11.57;;;;;;;;;;5027366;28;20407;-56
2022/08/19 01:04:00;;;;;;;22.95;11.60;;;;;;;;;;5028759;28;20375;-56
2022/08/19 01:06:26;;;;;;;22.48;11.50;;;;;;;;;;5029148;28;20515;-56
2022/08/19 01:08:54;;;;;;;20.98;11.70;;;;;;;;;;5028812;28;20399;-55
2022/08/19 01:11:20;;;;;;;20.17;11.80;;;;;;;;;;5028363;28;20410;-55
2022/08/19 01:13:47;;;;;;;19.77;11.57;;;;;;;;;;5026360;28;20367;-56
2022/08/19 01:16:13;;;;;;;21.95;12.98;;;;;;;;;;5028231;28;20378;-56
2022/08/19 01:18:40;;;;;;;22.70;11.88;;;;;;;;;;5029091;28;20391;-55
2022/08/19 01:21:09;;;;;;;19.20;11.87;;;;;;;;;;5028042;28;20391;-56
2022/08/19 01:23:44;;;;;;;23.27;12.48;;;;;;;;;;5028992;28;20398;-55
2022/08/19 01:26:13;;;;;;;21.30;11.40;;;;;;;;;;5025396;28;20418;-55
2022/08/19 01:28:39;;;;;;;23.27;11.82;;;;;;;;;;5028302;28;20442;-55
2022/08/19 01:31:06;;;;;;;20.63;12.00;;;;;;;;;;5027549;28;20946;-55
2022/08/19 01:33:32;;;;;;;21.67;12.83;;;;;;;;;;5028534;28;20371;-55
2022/08/19 01:36:09;;;;;;;22.73;12.17;;;;;;;;;;5028505;28;20568;-55
2022/08/19 01:38:36;;;;;;;22.17;12.30;;;;;;;;;;5028797;28;20748;-55
2022/08/19 01:41:02;;;;;;;30.00;12.77;;;;;;;;;;5028032;28;20774;-55
2022/08/19 01:43:28;;;;;;;24.45;13.88;;;;;;;;;;5025305;28;20522;-55
2022/08/19 01:45:55;;;;;;;22.33;13.50;;;;;;;;;;5027392;28;20383;-55
2022/08/19 01:48:21;;;;;;;25.55;13.32;;;;;;;;;;5027853;28;20473;-55
2022/08/19 01:50:47;;;;;;;23.50;13.30;;;;;;;;;;5026238;28;20391;-55
2022/08/19 01:53:13;;;;;;;23.77;12.95;;;;;;;;;;5027853;28;20907;-55
2022/08/19 01:55:40;;;;;;;24.13;12.70;;;;;;;;;;5028927;28;20498;-55
2022/08/19 01:58:08;;;;;;;23.75;13.65;;;;;;;;;;5025537;28;20399;-55
2022/08/19 02:00:34;;;;;;;26.15;13.60;;;;;;;;;;5028923;28;20396;-55
2022/08/19 02:03:00;;;;;;;23.55;13.23;;;;;;;;;;5028246;28;20384;-55
2022/08/19 02:05:28;;;;;;;26.60;13.85;;;;;;;;;;5026825;28;20383;-56
2022/08/19 02:07:55;;;;;;;25.60;14.20;;;;;;;;;;5027222;28;20434;-55
2022/08/19 02:10:22;;;;;;;25.77;13.60;;;;;;;;;;5027956;28;20432;-56
2022/08/19 02:12:49;;;;;;;24.63;13.33;;;;;;;;;;5028567;28;20391;-56
2022/08/19 02:15:15;;;;;;;24.98;14.38;;;;;;;;;;5027730;28;20401;-55
2022/08/19 02:17:42;;;;;;;26.17;14.50;;;;;;;;;;5028097;28;20379;-55
2022/08/19 02:20:09;;;;;;;24.88;13.60;;;;;;;;;;5027722;28;20426;-56
2022/08/19 02:22:35;;;;;;;24.47;14.03;;;;;;;;;;5028336;28;20376;-55
2022/08/19 02:25:01;;;;;;;24.55;14.45;;;;;;;;;;5027366;28;20423;-55
2022/08/19 02:27:27;;;;;;;25.27;14.18;;;;;;;;;;5027769;28;20441;-58
2022/08/19 02:29:54;;;;;;;27.20;14.73;;;;;;;;;;5027962;28;20453;-55
2022/08/19 02:32:20;;;;;;;26.43;14.23;;;;;;;;;;5026729;28;20415;-55
2022/08/19 02:34:46;;;;;;;28.77;15.00;;;;;;;;;;5027892;28;20383;-55
2022/08/19 02:39:57;;;;;;;27.48;15.68;;;;;;;;;;5026732;28;20486;-55
2022/08/19 02:42:23;;;;;;;26.95;14.73;;;;;;;;;;5027032;28;20458;-55
2022/08/19 02:44:49;;;;;;;28.38;15.65;;;;;;;;;;5027763;28;20763;-55
2022/08/19 02:47:15;;;;;;;26.75;15.40;;;;;;;;;;5026951;28;20391;-55
2022/08/19 02:49:41;;;;;;;26.10;16.00;;;;;;;;;;5028204;28;20383;-56
2022/08/19 02:52:08;;;;;;;29.83;16.55;;;;;;;;;;5026679;28;20393;-56
2022/08/19 02:54:34;;;;;;;26.90;15.52;;;;;;;;;;5027655;28;20884;-55
2022/08/19 02:57:00;;;;;;;26.52;15.73;;;;;;;;;;5027433;28;20379;-58
2022/08/19 02:59:29;;;;;;;26.60;15.95;;;;;;;;;;5026982;28;20388;-55
2022/08/19 03:01:56;;;;;;;30.83;16.20;;;;;;;;;;5027668;28;20386;-55
2022/08/19 03:04:22;;;;;;;30.23;16.35;;;;;;;;;;5027012;28;20359;-55
2022/08/19 03:06:49;;;;;;;26.13;15.23;;;;;;;;;;5026092;28;20391;-55
2022/08/19 03:09:15;;;;;;;26.30;16.23;;;;;;;;;;5026858;28;20505;-55
2022/08/19 03:11:41;;;;;;;28.65;16.25;;;;;;;;;;5027491;28;20535;-55
2022/08/19 03:14:08;;;;;;;32.13;17.08;;;;;;;;;;5026968;28;20529;-55
2022/08/19 03:16:40;;;;;;;28.88;16.90;;;;;;;;;;5031206;28;20871;-55
2022/08/19 03:19:06;;;;;;;26.10;16.30;;;;;;;;;;5030323;28;20410;-56
2022/08/19 03:21:33;;;;;;;30.77;17.35;;;;;;;;;;5030890;28;20371;-55
2022/08/19 03:24:00;;;;;;;29.93;16.13;;;;;;;;;;5030823;28;20387;-55
2022/08/19 03:26:27;;;;;;;27.98;16.92;;;;;;;;;;5030372;28;20407;-54
2022/08/19 03:28:53;;;;;;;30.70;17.20;;;;;;;;;;5030501;28;20538;-54
2022/08/19 03:31:22;;;;;;;29.75;16.75;;;;;;;;;;5028547;28;20656;-55
2022/08/19 03:33:49;;;;;;;28.33;16.83;;;;;;;;;;5028202;28;20387;-54
2022/08/19 03:36:22;;;;;;;29.63;17.38;;;;;;;;;;5029861;28;20395;-55
2022/08/19 03:38:50;;;;;;;29.50;17.03;;;;;;;;;;5028198;28;20375;-55
2022/08/19 03:41:18;;;;;;;26.73;16.50;;;;;;;;;;5030001;28;20426;-55
2022/08/19 03:43:46;;;;;;;29.33;17.80;;;;;;;;;;5030604;28;20414;-55
2022/08/19 03:46:14;;;;;;;29.55;17.10;;;;;;;;;;5029849;28;20387;-55
2022/08/19 03:48:40;;;;;;;26.50;16.63;;;;;;;;;;5030849;28;20418;-55
2022/08/19 03:51:07;;;;;;;31.50;17.88;;;;;;;;;;5029611;28;20449;-55
2022/08/19 03:53:34;;;;;;;30.98;17.63;;;;;;;;;;5030220;28;20796;-55
2022/08/19 03:56:00;;;;;;;30.00;17.60;;;;;;;;;;5030791;28;20478;-55
2022/08/19 03:58:28;;;;;;;27.92;16.45;;;;;;;;;;5029576;28;20459;-55
2022/08/19 04:00:55;;;;;;;30.17;17.73;;;;;;;;;;5028042;28;20886;-55
2022/08/19 04:03:21;;;;;;;29.23;17.52;;;;;;;;;;5029661;28;20394;-55
2022/08/19 04:05:47;;;;;;;32.53;18.87;;;;;;;;;;5027601;28;20379;-55
2022/08/19 04:08:18;;;;;;;31.80;19.30;;;;;;;;;;5029307;28;20429;-60
2022/08/19 04:10:44;;;;;;;30.52;17.65;;;;;;;;;;5030291;28;20395;-55
2022/08/19 04:13:10;;;;;;;34.65;19.23;;;;;;;;;;5029362;28;20933;-55
2022/08/19 04:15:41;;;;;;;28.35;17.17;;;;;;;;;;5029847;28;20391;-54
2022/08/19 04:18:07;;;;;;;28.92;18.05;;;;;;;;;;5029221;28;20395;-55
2022/08/19 04:20:33;;;;;;;31.60;19.52;;;;;;;;;;5030001;28;20452;-55
2022/08/19 04:22:59;;;;;;;28.08;17.77;;;;;;;;;;5030215;28;20510;-54
2022/08/19 04:25:25;;;;;;;30.45;17.75;;;;;;;;;;5028532;28;20872;-55
2022/08/19 04:27:51;;;;;;;31.48;18.42;;;;;;;;;;5029604;28;20447;-54
2022/08/19 04:30:19;;;;;;;33.15;18.85;;;;;;;;;;5029078;28;21124;-55
2022/08/19 04:32:45;;;;;;;30.05;17.73;;;;;;;;;;5029421;28;20380;-54
2022/08/19 04:35:11;;;;;;;30.80;18.70;;;;;;;;;;5028589;28;20433;-54
2022/08/19 04:37:37;;;;;;;32.08;18.40;;;;;;;;;;5027817;28;20395;-54
2022/08/19 04:42:49;;;;;;;33.08;18.20;;;;;;;;;;5026883;28;20469;-55
2022/08/19 04:45:15;;;;;;;31.42;18.30;;;;;;;;;;5027345;28;20780;-54
2022/08/19 04:47:41;;;;;;;30.70;17.73;;;;;;;;;;5029326;28;20411;-55
2022/08/19 04:50:09;;;;;;;31.83;18.67;;;;;;;;;;5025345;28;20477;-55
2022/08/19 04:52:35;;;;;;;32.10;18.40;;;;;;;;;;5029459;28;20367;-54
2022/08/19 04:55:01;;;;;;;31.93;18.83;;;;;;;;;;5028891;28;20391;-55
2022/08/19 04:57:27;;;;;;;30.52;18.15;;;;;;;;;;5028633;28;20391;-55
2022/08/19 04:59:57;;;;;;;31.00;18.50;;;;;;;;;;5029616;28;20422;-55
2022/08/19 05:02:24;;;;;;;32.28;18.70;;;;;;;;;;5028346;28;20574;-55
2022/08/19 05:04:50;;;;;;;32.05;18.88;;;;;;;;;;5028969;28;20387;-54
2022/08/19 05:07:16;;;;;;;36.88;20.15;;;;;;;;;;5028395;28;20376;-55
2022/08/19 05:09:42;;;;;;;31.57;19.03;;;;;;;;;;5028122;28;20423;-54
2022/08/19 05:12:08;;;;;;;31.35;19.27;;;;;;;;;;5022830;28;20371;-55
2022/08/19 05:14:36;;;;;;;30.70;18.83;;;;;;;;;;5028522;28;20383;-54
2022/08/19 05:17:02;;;;;;;31.88;18.10;;;;;;;;;;5028184;28;20391;-55
2022/08/19 05:22:32;;;;;;;32.85;18.98;;;;;;;;;;5027825;28;20385;-55
2022/08/19 05:24:58;;;;;;;29.23;18.50;;;;;;;;;;5027963;28;20387;-54
2022/08/19 05:27:24;;;;;;;31.42;18.50;;;;;;;;;;5027459;28;20995;-54
2022/08/19 05:29:50;;;;;;;30.70;18.60;;;;;;;;;;5028671;28;20856;-55
2022/08/19 05:32:16;;;;;;;32.13;19.30;;;;;;;;;;5027214;28;20436;-55
2022/08/19 05:34:42;;;;;;;29.25;18.45;;;;;;;;;;5028172;28;20375;-55
2022/08/19 05:37:08;;;;;;;30.70;18.60;;;;;;;;;;5025707;28;20698;-55
2022/08/19 05:39:35;;;;;;;32.37;18.53;;;;;;;;;;5028451;28;20375;-55
2022/08/19 05:42:09;;;;;;;31.20;18.30;;;;;;;;;;5028590;28;20371;-54
2022/08/19 05:44:37;;;;;;;30.33;18.50;;;;;;;;;;5028606;28;20375;-54
2022/08/19 05:47:04;;;;;;;34.42;19.92;;;;;;;;;;5027457;28;20896;-54
2022/08/19 05:49:31;;;;;;;33.50;19.55;;;;;;;;;;5027307;28;20395;-54
2022/08/19 05:51:59;;;;;;;30.13;18.17;;;;;;;;;;5027599;28;20387;-53
2022/08/19 05:54:25;;;;;;;34.30;18.90;;;;;;;;;;5026940;28;20424;-54
2022/08/19 05:56:52;;;;;;;37.38;19.25;;;;;;;;;;5026841;28;20480;-54
2022/08/19 05:59:21;;;;;;;35.90;18.27;;;;;;;;;;5027328;28;20722;-54
2022/08/19 06:01:50;;;;;;;27.08;16.73;;;;;;;;;;5025957;28;20827;-54
2022/08/19 06:04:18;;;;;;;31.03;18.50;;;;;;;;;;5024756;28;20402;-54
2022/08/19 06:06:44;;;;;;;31.83;18.90;;;;;;;;;;5025524;28;20550;-54
2022/08/19 06:09:10;;;;;;;32.95;18.70;;;;;;;;;;5023331;28;20889;-54
2022/08/19 06:11:44;;;;;;;32.53;18.48;;;;;;;;;;5019456;28;20462;-55
2022/08/19 06:14:11;;;;;;;36.07;18.70;;;;;;;;;;5025960;28;20395;-56
2022/08/19 06:16:38;;;;;;;31.85;17.98;;;;;;;;;;5028227;28;20496;-55
2022/08/19 06:19:06;;;;;;;31.13;18.70;;;;;;;;;;5026625;28;20417;-55
2022/08/19 06:21:32;;;;;;;34.07;18.70;;;;;;;;;;5026435;28;20697;-55
2022/08/19 06:23:59;;;;;;;28.17;17.65;;;;;;;;;;5026493;28;20379;-55
2022/08/19 06:26:26;;;;;;;31.42;17.80;;;;;;;;;;5026974;28;20417;-55
2022/08/19 06:28:52;;;;;;;34.10;18.30;;;;;;;;;;5027103;28;20476;-54
2022/08/19 06:31:23;;;;;;;32.60;18.20;;;;;;;;;;5026210;28;20821;-55
2022/08/19 06:33:49;;;;;;;31.40;18.25;;;;;;;;;;5026311;28;20387;-54
2022/08/19 06:36:27;;;;;;;31.60;18.05;;;;;;;;;;5026049;28;20375;-55
2022/08/19 06:38:53;;;;;;;29.20;18.80;;;;;;;;;;5024938;28;20860;-55
2022/08/19 06:41:19;;;;;;;33.67;18.80;;;;;;;;;;5026148;28;20375;-55
2022/08/19 06:43:46;;;;;;;31.65;18.33;;;;;;;;;;5025574;28;20387;-55
2022/08/19 06:46:16;;;;;;;29.27;17.75;;;;;;;;;;5024791;28;20403;-55
2022/08/19 06:48:42;;;;;;;30.45;18.00;;;;;;;;;;5028827;28;20467;-54
2022/08/19 06:51:08;;;;;;;35.10;18.43;;;;;;;;;;5030686;28;20478;-55
2022/08/19 06:53:34;;;;;;;28.63;17.73;;;;;;;;;;5031598;28;20371;-55
2022/08/19 06:56:02;;;;;;;30.27;17.48;;;;;;;;;;5031531;28;20386;-55
2022/08/19 06:58:31;;;;;;;34.70;18.00;;;;;;;;;;5028356;28;20379;-55
2022/08/19 07:01:00;;;;;;;30.50;17.77;;;;;;;;;;5031520;28;20878;-55
2022/08/19 07:03:28;;;;;;;26.40;17.00;;;;;;;;;;5031194;28;20429;-54
2022/08/19 07:05:54;;;;;;;29.00;17.77;;;;;;;;;;5031670;28;20404;-54
2022/08/19 07:08:20;;;;;;;28.83;18.00;;;;;;;;;;5031032;28;20495;-55
2022/08/19 07:10:46;;;;;;;30.08;17.98;;;;;;;;;;5031660;28;20747;-54
2022/08/19 07:13:12;;;;;;;27.85;16.95;;;;;;;;;;5030855;28;20379;-55
2022/08/19 07:15:38;;;;;;;29.23;16.85;;;;;;;;;;5031374;28;20391;-55
2022/08/19 07:18:04;;;;;;;26.48;16.60;;;;;;;;;;5031213;28;20421;-55
2022/08/19 07:20:31;;;;;;;28.02;16.90;;;;;;;;;;5030495;28;20529;-55
2022/08/19 07:22:57;;;;;;;29.25;18.17;;;;;;;;;;5031254;28;20371;-54
2022/08/19 07:25:23;;;;;;;25.58;16.60;;;;;;;;;;5030296;28;20391;-54
2022/08/19 07:27:50;;;;;;;28.80;16.52;;;;;;;;;;5031226;28;20410;-54
2022/08/19 07:30:16;;;;;;;27.57;16.83;;;;;;;;;;5030028;28;20394;-55
2022/08/19 07:32:42;;;;;;;26.38;16.33;;;;;;;;;;5025135;28;20422;-54
2022/08/19 07:35:09;;;;;;;25.17;15.27;;;;;;;;;;5011614;28;20369;-55
2022/08/19 07:37:36;;;;;;;26.75;17.02;;;;;;;;;;5011530;28;20492;-54
2022/08/19 07:40:04;;;;;;;26.20;16.02;;;;;;;;;;5011825;28;20368;-55
2022/08/19 07:42:30;;;;;;;26.48;15.85;;;;;;;;;;5010886;28;20395;-55
2022/08/19 07:44:56;;;;;;;26.00;15.88;;;;;;;;;;5024795;28;20391;-54
2022/08/19 07:47:22;;;;;;;25.65;15.18;;;;;;;;;;5029749;28;20475;-55
2022/08/19 07:49:48;;;;;;;26.95;14.75;;;;;;;;;;5030490;28;20462;-55
2022/08/19 07:52:16;;;;;;;30.58;16.27;;;;;;;;;;5027214;28;20768;-54
2022/08/19 07:54:42;;;;;;;26.37;14.57;;;;;;;;;;5030200;28;20379;-55
2022/08/19 07:57:09;;;;;;;26.52;16.02;;;;;;;;;;5028567;28;20498;-56
2022/08/19 07:59:36;;;;;;;25.88;15.00;;;;;;;;;;5029956;28;20822;-56
2022/08/19 08:02:02;;;;;;;25.73;15.30;;;;;;;;;;5026542;28;20713;-55
2022/08/19 08:09:58;;;;;;;24.55;14.70;;;;;;;;;;5029729;28;20447;-53
2022/08/19 08:12:28;;;;;;;22.92;14.48;;;;;;;;;;5026931;28;20911;-53
2022/08/19 08:14:55;;;;;;;24.52;15.10;;;;;;;;;;5030360;28;20383;-54
2022/08/19 08:17:23;;;;;;;23.52;14.52;;;;;;;;;;5029570;28;20398;-55
2022/08/19 08:19:50;;;;;;;26.90;14.80;;;;;;;;;;5028698;28;20383;-55
2022/08/19 08:25:12;;;;;;;26.60;14.60;;;;;;;;;;5029268;28;20414;-54
2022/08/19 08:27:40;;;;;;;22.65;14.00;;;;;;;;;;5028639;28;20510;-54
2022/08/19 08:30:09;;;;;;;24.35;15.10;;;;;;;;;;5029650;28;20477;-54
2022/08/19 08:32:35;;;;;;;24.65;14.25;;;;;;;;;;5028194;28;20430;-54
2022/08/19 08:35:01;;;;;;;26.63;14.80;;;;;;;;;;5029930;28;20395;-54
2022/08/19 08:37:27;;;;;;;26.60;13.87;;;;;;;;;;5029089;28;20378;-54
2022/08/19 08:39:54;;;;;;;24.98;14.57;;;;;;;;;;5029354;28;20371;-54
2022/08/19 08:42:26;;;;;;;26.13;14.30;;;;;;;;;;5026240;28;20379;-54
2022/08/19 08:45:14;;;;;;;25.33;14.50;;;;;;;;;;5029299;28;20442;-54
2022/08/19 08:47:43;;;;;;;21.90;14.20;;;;;;;;;;5029470;28;20442;-54
2022/08/19 08:50:14;;;;;;;24.55;13.95;;;;;;;;;;5026913;28;20405;-54
2022/08/19 08:52:43;;;;;;;23.52;14.02;;;;;;;;;;5027519;28;20391;-55
2022/08/19 08:55:14;;;;;;;21.83;13.35;;;;;;;;;;5027039;28;20892;-55
2022/08/19 08:57:54;;;;;;;23.58;14.57;;;;;;;;;;5026697;28;20399;-54
2022/08/19 09:00:31;;;;;;;22.80;14.07;;;;;;;;;;5025978;28;20371;-54
2022/08/19 09:02:58;;;;;;;20.65;13.70;;;;;;;;;;5029169;28;20371;-54
2022/08/19 09:05:27;;;;;;;21.25;13.45;;;;;;;;;;5028279;28;20935;-55
2022/08/19 09:08:01;;;;;;;20.20;13.02;;;;;;;;;;5027719;28;20764;-55
2022/08/19 09:10:27;;;;;;;23.30;13.18;;;;;;;;;;5024983;28;20880;-55
2022/08/19 09:12:59;;;;;;;20.10;13.15;;;;;;;;;;5028525;28;20386;-55
2022/08/19 09:15:45;;;;;;;22.38;13.32;;;;;;;;;;5018661;28;20536;-55
2022/08/19 09:18:11;;;;;;;20.25;12.80;;;;;;;;;;5018931;28;20557;-55
2022/08/19 09:20:37;;;;;;;22.40;13.40;;;;;;;;;;5024790;28;20417;-55
2022/08/19 09:23:04;;;;;;;22.20;13.00;;;;;;;;;;5023016;28;20497;-55
2022/08/19 09:25:31;;;;;;;20.80;12.25;;;;;;;;;;5025668;28;20407;-55
2022/08/19 09:27:59;;;;;;;22.33;12.57;;;;;;;;;;5026361;28;20462;-56
2022/08/19 09:30:26;;;;;;;22.00;12.00;;;;;;;;;;5019211;28;20389;-56
2022/08/19 09:32:52;;;;;;;21.33;11.80;;;;;;;;;;5029414;28;20619;-55
2022/08/19 09:35:21;;;;;;;21.20;11.73;;;;;;;;;;5028331;28;20378;-56
2022/08/19 09:37:48;;;;;;;19.00;12.27;;;;;;;;;;5028711;28;20389;-55
2022/08/19 09:40:15;;;;;;;18.92;11.43;;;;;;;;;;5027861;28;20468;-56
2022/08/19 09:42:43;;;;;;;20.35;12.32;;;;;;;;;;5028827;28;20387;-56
2022/08/19 09:45:09;;;;;;;20.80;12.70;;;;;;;;;;5028600;28;20886;-55
2022/08/19 09:47:38;;;;;;;19.27;11.90;;;;;;;;;;5027264;28;20465;-56
2022/08/19 09:50:07;;;;;;;18.80;11.60;;;;;;;;;;5028687;28;20816;-55
2022/08/19 09:52:36;;;;;;;18.25;11.23;;;;;;;;;;5027895;28;20375;-56
2022/08/19 09:55:03;;;;;;;18.70;11.70;;;;;;;;;;5025743;28;20383;-56
2022/08/19 09:57:29;;;;;;;21.42;12.00;;;;;;;;;;5022084;28;20384;-56
2022/08/19 09:59:55;;;;;;;19.92;11.48;;;;;;;;;;5022376;28;20451;-55
2022/08/19 10:02:21;;;;;;;19.58;11.75;;;;;;;;;;5027656;28;20733;-55
2022/08/19 10:07:32;;;;;;;20.65;12.60;;;;;;;;;;5027663;28;20383;-55
2022/08/19 10:09:58;;;;;;;17.83;11.32;;;;;;;;;;5028361;28;20452;-55
2022/08/19 10:12:24;;;;;;;26.88;12.48;;;;;;;;;;5025878;28;20477;-55
2022/08/19 10:14:51;;;;;;;19.13;11.90;;;;;;;;;;5023650;28;20418;-55
2022/08/19 10:17:17;;;;;;;20.95;11.50;;;;;;;;;;5026925;28;20379;-55
2022/08/19 10:19:43;;;;;;;18.20;11.30;;;;;;;;;;5025477;28;20403;-55
2022/08/19 10:22:13;;;;;;;19.27;10.70;;;;;;;;;;5027657;28;20376;-55
2022/08/19 10:24:39;;;;;;;19.65;10.93;;;;;;;;;;5027293;28;20415;-55
2022/08/19 10:27:05;;;;;;;18.20;10.90;;;;;;;;;;5027147;28;20430;-55
2022/08/19 10:29:34;;;;;;;19.15;10.85;;;;;;;;;;5026736;28;20468;-55
2022/08/19 10:32:00;;;;;;;26.00;11.23;;;;;;;;;;5027326;28;20735;-56
2022/08/19 10:34:27;;;;;;;18.63;10.70;;;;;;;;;;5027037;28;20386;-55
2022/08/19 10:36:53;;;;;;;20.33;10.35;;;;;;;;;;5025368;28;20465;-55
2022/08/19 10:39:19;;;;;;;16.35;9.90;;;;;;;;;;5027509;28;20429;-55
2022/08/19 10:41:45;;;;;;;14.73;8.73;;;;;;;;;;5028140;28;20440;-56
2022/08/19 10:44:13;;;;;;;17.65;8.85;;;;;;;;;;5027408;28;20379;-55
2022/08/19 10:46:44;;;;;;;19.23;9.20;;;;;;;;;;5028572;28;20406;-55
2022/08/19 10:49:11;;;;;;;14.73;8.80;;;;;;;;;;5022284;28;20415;-55
2022/08/19 10:54:22;;;;;;;15.95;9.48;;;;;;;;;;5027397;28;20382;-56
2022/08/19 10:56:51;;;;;;;16.20;9.60;;;;;;;;;;5028353;28;20379;-56
2022/08/19 10:59:28;;;;;;;15.40;9.00;;;;;;;;;;5025767;28;20639;-55
2022/08/19 11:01:55;;;;;;;14.48;8.05;;;;;;;;;;5028298;28;20544;-56
2022/08/19 11:04:22;;;;;;;13.80;8.33;;;;;;;;;;5027241;28;20485;-55
2022/08/19 11:06:48;;;;;;;15.85;8.98;;;;;;;;;;5027857;28;20959;-55
2022/08/19 11:09:15;;;;;;;13.73;8.52;;;;;;;;;;5026848;28;20407;-55
2022/08/19 11:11:42;;;;;;;14.67;8.00;;;;;;;;;;5027841;28;20470;-55
2022/08/19 11:14:13;;;;;;;15.60;8.13;;;;;;;;;;5027395;28;20378;-55
2022/08/19 11:16:42;;;;;;;15.18;8.55;;;;;;;;;;5026630;28;20379;-56
2022/08/19 11:19:08;;;;;;;16.00;8.32;;;;;;;;;;5027875;28;20406;-57
2022/08/19 11:21:36;;;;;;;14.50;8.68;;;;;;;;;;5027467;28;20403;-55
2022/08/19 11:24:08;;;;;;;13.13;8.30;;;;;;;;;;5027749;28;20524;-55
2022/08/19 11:26:34;;;;;;;15.45;9.02;;;;;;;;;;5025251;28;20866;-55
2022/08/19 11:29:01;;;;;;;15.65;8.40;;;;;;;;;;5027011;28;20496;-55
2022/08/19 11:31:28;;;;;;;15.35;9.10;;;;;;;;;;5025894;28;20403;-57
2022/08/19 11:33:56;;;;;;;17.40;8.68;;;;;;;;;;5026218;28;20387;-55
2022/08/19 11:36:22;;;;;;;15.20;9.30;;;;;;;;;;5028399;28;20918;-56
2022/08/19 11:38:49;;;;;;;15.68;9.30;;;;;;;;;;5025505;28;20457;-55
2022/08/19 11:41:16;;;;;;;15.73;8.98;;;;;;;;;;5030774;28;20378;-55
2022/08/19 11:43:42;;;;;;;18.00;9.07;;;;;;;;;;5028680;28;20449;-55
2022/08/19 11:46:10;;;;;;;14.25;8.20;;;;;;;;;;5026893;28;20387;-56
2022/08/19 11:48:36;;;;;;;19.20;9.63;;;;;;;;;;5026838;28;20486;-56
2022/08/19 11:51:08;;;;;;;16.23;9.40;;;;;;;;;;5029014;28;20434;-55
2022/08/19 11:53:34;;;;;;;15.17;8.70;;;;;;;;;;5030595;28;20417;-55
2022/08/19 11:56:00;;;;;;;14.32;9.02;;;;;;;;;;5029590;28;20864;-55
2022/08/19 11:58:26;;;;;;;16.37;9.13;;;;;;;;;;5029663;28;20465;-55
2022/08/19 12:00:52;;;;;;;15.18;8.65;;;;;;;;;;5031160;28;20402;-57
2022/08/19 12:03:19;;;;;;;14.65;9.00;;;;;;;;;;5031291;28;20499;-57
2022/08/19 12:05:45;;;;;;;16.38;9.43;;;;;;;;;;5031786;28;20466;-57
2022/08/19 12:08:12;;;;;;;13.90;8.43;;;;;;;;;;5029576;28;20476;-55
2022/08/19 12:10:39;;;;;;;15.60;9.50;;;;;;;;;;5030394;28;20825;-55
2022/08/19 12:13:06;;;;;;;14.55;9.10;;;;;;;;;;5030167;28;20376;-55
2022/08/19 12:15:35;;;;;;;14.63;8.68;;;;;;;;;;5029677;28;20386;-55
2022/08/19 12:18:01;;;;;;;15.15;8.93;;;;;;;;;;5030705;28;20466;-55
2022/08/19 12:20:27;;;;;;;14.15;8.25;;;;;;;;;;5027681;28;20470;-55
2022/08/19 12:22:54;;;;;;;13.13;7.97;;;;;;;;;;5030274;28;20375;-55
2022/08/19 12:25:20;;;;;;;13.73;8.07;;;;;;;;;;5028894;28;20550;-55
2022/08/19 12:27:46;;;;;;;13.00;7.80;;;;;;;;;;5029449;28;20414;-56
2022/08/19 12:30:13;;;;;;;13.10;8.10;;;;;;;;;;5029685;28;20439;-55
2022/08/19 12:32:40;;;;;;;14.35;8.35;;;;;;;;;;5029753;28;20367;-55
2022/08/19 12:35:07;;;;;;;12.23;7.68;;;;;;;;;;5029595;28;20387;-55
2022/08/19 12:37:34;;;;;;;13.25;7.50;;;;;;;;;;5026795;28;20391;-55
2022/08/19 12:40:00;;;;;;;13.20;7.05;;;;;;;;;;5027540;28;21433;-55
2022/08/19 12:42:26;;;;;;;13.17;7.50;;;;;;;;;;5027937;28;20391;-55
2022/08/19 12:44:52;;;;;;;12.27;7.18;;;;;;;;;;5027410;28;20522;-56
2022/08/19 12:47:18;;;;;;;12.18;7.70;;;;;;;;;;5028909;28;20364;-56
2022/08/19 12:49:46;;;;;;;12.80;7.20;;;;;;;;;;5029431;28;20419;-56
2022/08/19 12:52:15;;;;;;;11.90;7.20;;;;;;;;;;5027795;28;20391;-56
2022/08/19 12:54:42;;;;;;;11.43;6.70;;;;;;;;;;5028041;28;20474;-56
2022/08/19 12:57:10;;;;;;;11.98;6.70;;;;;;;;;;5030132;28;20532;-56
2022/08/19 12:59:36;;;;;;;12.18;7.00;;;;;;;;;;5029365;28;20481;-56
2022/08/19 13:02:04;;;;;;;14.32;7.22;;;;;;;;;;5028608;28;20875;-56
2022/08/19 13:04:30;;;;;;;13.27;8.23;;;;;;;;;;5029313;28;21190;-56
2022/08/19 13:06:56;;;;;;;13.57;7.95;;;;;;;;;;5026217;28;20428;-56
2022/08/19 13:09:22;;;;;;;14.80;7.60;;;;;;;;;;5024425;28;20453;-55
2022/08/19 13:11:48;;;;;;;12.00;6.50;;;;;;;;;;5027922;28;20403;-56
2022/08/19 13:14:14;;;;;;;12.25;6.60;;;;;;;;;;5027060;28;20864;-55
2022/08/19 13:16:41;;;;;;;12.90;6.90;;;;;;;;;;5023930;28;20478;-55
2022/08/19 13:19:07;;;;;;;11.88;6.97;;;;;;;;;;5029116;28;20403;-56
2022/08/19 13:21:33;;;;;;;12.95;6.70;;;;;;;;;;5024021;28;20467;-56
2022/08/19 13:23:59;;;;;;;10.88;6.70;;;;;;;;;;5026327;28;20449;-56
2022/08/19 13:26:25;;;;;;;11.07;6.40;;;;;;;;;;5024826;28;20435;-56
2022/08/19 13:34:33;;;;;;;13.15;6.20;;;;;;;;;;5027047;28;20710;-56
2022/08/19 13:37:02;;;;;;;13.83;6.77;;;;;;;;;;5025398;28;20474;-56
2022/08/19 13:39:28;;;;;;;11.55;6.80;;;;;;;;;;5027236;28;20471;-56
2022/08/19 13:41:54;;;;;;;10.80;6.68;;;;;;;;;;5027960;28;20488;-55
2022/08/19 13:44:20;;;;;;;12.27;6.53;;;;;;;;;;5026027;28;20813;-56
2022/08/19 13:46:51;;;;;;;12.98;6.80;;;;;;;;;;5027560;28;20711;-55
2022/08/19 13:49:17;;;;;;;12.98;6.80;;;;;;;;;;5027152;28;20411;-55
2022/08/19 13:51:44;;;;;;;12.77;7.15;;;;;;;;;;5028373;28;20379;-55
2022/08/19 13:54:11;;;;;;;11.88;7.07;;;;;;;;;;5028431;28;20458;-56
2022/08/19 13:56:44;;;;;;;16.00;7.70;;;;;;;;;;5026453;28;20492;-55
2022/08/19 13:59:11;;;;;;;14.77;7.32;;;;;;;;;;5025740;28;20399;-55
2022/08/19 14:01:37;;;;;;;19.27;10.88;;;;;;;;;;5026158;28;20386;-55
2022/08/19 14:04:03;;;;;;;22.65;14.15;;;;;;;;;;5028097;28;20718;-55
2022/08/19 14:06:29;;;;;;;22.60;13.60;;;;;;;;;;5027503;28;20388;-55
2022/08/19 14:08:56;;;;;;;22.02;14.30;;;;;;;;;;5028113;28;20414;-54
2022/08/19 14:11:22;;;;;;;24.90;14.90;;;;;;;;;;5027083;28;20888;-55
2022/08/19 14:13:48;;;;;;;27.92;15.90;;;;;;;;;;5027953;28;20836;-55
2022/08/19 14:16:15;;;;;;;26.15;16.23;;;;;;;;;;5027454;28;20425;-55
2022/08/19 14:18:41;;;;;;;26.90;16.02;;;;;;;;;;5027894;28;20410;-56
2022/08/19 14:21:08;;;;;;;29.38;16.35;;;;;;;;;;5027801;28;20367;-54
2022/08/19 14:23:35;;;;;;;27.25;15.93;;;;;;;;;;5026853;28;20363;-55
2022/08/19 14:26:09;;;;;;;27.20;16.50;;;;;;;;;;5027667;28;20518;-54
2022/08/19 14:28:35;;;;;;;28.35;16.65;;;;;;;;;;5024653;28;20646;-54
2022/08/19 14:31:01;;;;;;;29.52;16.58;;;;;;;;;;5027698;28;20371;-55
2022/08/19 14:33:27;;;;;;;28.35;16.27;;;;;;;;;;5026598;28;20379;-55
2022/08/19 14:35:53;;;;;;;27.75;16.85;;;;;;;;;;5027833;28;20453;-56
2022/08/19 14:38:20;;;;;;;33.58;15.80;;;;;;;;;;5026991;28;20386;-55
2022/08/19 14:40:46;;;;;;;29.52;17.35;;;;;;;;;;5027592;28;20445;-55
2022/08/19 14:43:13;;;;;;;27.10;16.90;;;;;;;;;;5027384;28;20740;-56
2022/08/19 14:45:39;;;;;;;27.95;16.70;;;;;;;;;;5026715;28;20444;-55
2022/08/19 14:48:06;;;;;;;25.88;16.42;;;;;;;;;;5026125;28;20411;-55